Time;durP1;ratioP1;P1;durP2;ratioP2;P2;SDS_P1;SDS_P2;PMS_P1;PMS_P2;Temp;Humidity;BMP_temperature;BMP_pressure;BME280_temperature;BME280_humidity;BME280_pressure;Samples;Min_cycle;Max_cycle;Signal;HPM_P1;HPM_P2
2022/11/09 00:37:45;;;;;;;31.40;16.02;;;;;;;12.03;70.20;101646.56;6354421;22;20014;-96
2022/11/09 00:41:12;;;;;;;29.52;15.90;;;;;;;11.75;69.92;101596.25;6346423;22;20066;-95
2022/11/09 01:00:37;;;;;;;24.60;14.60;;;;;;;12.01;69.83;101604.56;6353365;22;20026;-93
2022/11/09 01:03:24;;;;;;;26.80;14.55;;;;;;;12.22;69.35;101617.81;6322003;22;20067;-95
2022/11/09 02:59:23;;;;;;;23.40;13.48;;;;;;;12.42;69.64;101645.56;6316449;22;20121;-95
2022/11/09 03:02:02;;;;;;;32.20;13.98;;;;;;;12.07;69.63;101601.28;6322140;22;20011;-89
2022/11/09 03:07:49;;;;;;;25.52;13.60;;;;;;;12.29;69.57;101612.69;6329406;22;20075;-95
2022/11/09 03:10:45;;;;;;;24.10;13.27;;;;;;;12.20;69.42;101614.44;6324358;22;20038;-93
2022/11/09 03:13:41;;;;;;;21.65;12.27;;;;;;;12.50;69.14;101652.91;6293372;22;20073;-95
2022/11/09 03:16:48;;;;;;;23.02;12.35;;;;;;;12.29;69.16;101616.25;6291436;22;20014;-95
2022/11/09 03:20:06;;;;;;;20.33;12.02;;;;;;;12.23;69.11;101600.66;6317200;22;20072;-96
2022/11/09 03:23:23;;;;;;;22.00;12.32;;;;;;;12.52;68.97;101640.13;6322576;22;20011;-95
2022/11/09 03:27:24;;;;;;;20.00;11.65;;;;;;;12.12;69.24;101576.59;6307217;22;20007;-94
2022/11/09 03:30:22;;;;;;;21.52;12.48;;;;;;;12.36;69.02;101619.19;6184040;22;20415;-94
2022/11/09 03:41:43;;;;;;;18.65;11.18;;;;;;;12.46;69.26;101645.13;6270670;22;20015;-95
2022/11/09 04:38:50;;;;;;;17.48;9.68;;;;;;;12.46;69.81;101646.97;6321386;22;20072;-96
2022/11/09 04:42:02;;;;;;;20.52;9.65;;;;;;;12.13;70.03;101605.25;6262724;23;20145;-96
2022/11/09 04:52:36;;;;;;;19.95;9.68;;;;;;;12.24;70.45;101658.97;6316683;22;20018;-94
2022/11/09 04:55:41;;;;;;;21.35;10.60;;;;;;;12.08;70.76;101642.56;6327478;22;20023;-94
2022/11/09 04:59:43;;;;;;;25.33;11.35;;;;;;;12.11;70.86;101645.84;6310955;22;20007;-91
2022/11/09 05:02:21;;;;;;;26.73;11.25;;;;;;;12.17;70.98;101672.19;6291154;22;20113;-94
2022/11/09 05:05:18;;;;;;;24.33;12.25;;;;;;;11.85;71.59;101632.13;6289642;22;20010;-95
2022/11/09 05:08:26;;;;;;;25.88;12.25;;;;;;;12.10;71.71;101672.94;6299816;22;20003;-93
2022/11/09 05:11:37;;;;;;;25.48;12.52;;;;;;;12.10;71.52;101673.78;6228277;23;20016;-94
2022/11/09 05:15:30;;;;;;;21.57;13.13;;;;;;;12.06;71.19;101660.72;6171377;23;20026;-95
2022/11/09 05:24:11;;;;;;;25.58;13.30;;;;;;;11.98;71.10;101662.31;6280895;22;20145;-93
2022/11/09 05:26:47;;;;;;;30.38;12.30;;;;;;;12.00;70.92;101665.72;6288297;22;20034;-96
2022/11/09 05:29:35;;;;;;;35.17;13.20;;;;;;;12.09;70.50;101672.09;6312058;22;20003;-95
2022/11/09 05:32:04;;;;;;;38.35;13.18;;;;;;;12.20;70.38;101677.31;6254203;22;20017;-92
2022/11/09 05:34:29;;;;;;;26.58;13.38;;;;;;;12.12;70.47;101666.38;6287638;22;20058;-92
2022/11/09 05:37:07;;;;;;;;;;;;;;;12.38;70.32;101716.97;6294164;22;20011;-94
2022/11/09 05:39:47;;;;;;;30.02;12.75;;;;;;;11.93;70.23;101645.72;6317677;22;19910;-95
2022/11/09 05:42:23;;;;;;;30.60;13.75;;;;;;;12.35;70.15;101717.28;6264963;22;19995;-94
2022/11/09 05:45:34;;;;;;;30.50;13.90;;;;;;;12.46;69.97;101717.09;6291463;22;20021;-96
2022/11/09 05:48:27;;;;;;;31.95;14.20;;;;;;;12.23;70.32;101700.41;6253276;22;20038;-95
2022/11/09 05:51:46;;;;;;;33.10;14.88;;;;;;;12.16;69.99;101664.25;6219295;23;20068;-96
2022/11/09 05:57:45;;;;;;;32.47;14.07;;;;;;;12.60;68.98;101699.59;6270278;22;20022;-94
2022/11/09 06:00:13;;;;;;;29.83;15.55;;;;;;;12.91;68.54;101731.66;6275753;22;20061;-95
2022/11/09 06:03:08;;;;;;;28.77;14.90;;;;;;;12.95;68.59;101736.63;6280314;22;20059;-95
2022/11/09 06:21:21;;;;;;;38.78;17.15;;;;;;;13.09;67.61;101735.25;6317979;22;20019;-95
2022/11/09 06:24:02;;;;;;;30.77;16.77;;;;;;;13.02;67.21;101717.97;6272990;22;20015;-94
2022/11/09 06:27:17;;;;;;;39.28;17.08;;;;;;;13.30;67.08;101752.06;6153078;23;20009;-94
2022/11/09 06:30:10;;;;;;;38.50;16.98;;;;;;;13.17;66.94;101710.19;6194330;23;20065;-95
2022/11/09 06:36:52;;;;;;;67.35;18.05;;;;;;;13.46;66.50;101742.41;6209851;23;20112;-94
2022/11/09 06:47:49;;;;;;;44.35;21.40;;;;;;;13.61;65.67;101759.81;6350453;22;20025;-95
2022/11/09 06:51:05;;;;;;;44.25;22.70;;;;;;;13.62;65.46;101758.78;6358946;22;20071;-94
2022/11/09 06:54:11;;;;;;;53.40;23.08;;;;;;;13.51;65.84;101764.44;6364256;22;20034;-94
2022/11/09 07:00:02;;;;;;;42.72;21.83;;;;;;;13.35;66.04;101754.31;6359407;22;20060;-95
2022/11/09 07:02:59;;;;;;;42.67;21.02;;;;;;;13.45;66.03;101762.34;6325167;22;20081;-94
2022/11/09 07:09:43;;;;;;;42.70;21.27;;;;;;;13.16;66.41;101730.97;6356292;22;20111;-94
2022/11/09 07:12:36;;;;;;;48.33;21.75;;;;;;;13.37;65.32;101733.41;6354145;22;20030;-95
2022/11/09 07:15:34;;;;;;;68.35;25.38;;;;;;;13.64;65.89;101767.59;6322927;22;20014;-94
2022/11/09 07:19:07;;;;;;;50.13;22.08;;;;;;;13.60;65.47;101771.63;6329249;22;20059;-94
2022/11/09 07:22:30;;;;;;;67.50;21.77;;;;;;;13.64;65.35;101773.00;6296866;22;20010;-94
2022/11/09 07:26:03;;;;;;;57.92;24.63;;;;;;;13.53;65.69;101773.22;6292900;22;19999;-96
2022/11/09 07:29:46;;;;;;;47.92;23.95;;;;;;;13.20;65.81;101724.22;6259649;22;20062;-94
2022/11/09 07:32:50;;;;;;;46.83;23.33;;;;;;;13.23;66.70;101758.22;6115755;23;20013;-95
2022/11/09 07:35:42;;;;;;;54.85;22.83;;;;;;;13.26;66.47;101742.53;6164740;23;20064;-93
2022/11/09 07:38:45;;;;;;;49.10;22.48;;;;;;;13.42;66.27;101762.66;6152421;23;20009;-95
2022/11/09 07:45:03;;;;;;;58.35;24.58;;;;;;;13.57;66.17;101760.28;6164419;23;20081;-93
2022/11/09 07:48:06;;;;;;;51.67;22.98;;;;;;;13.46;66.24;101745.13;6162105;23;20033;-95
2022/11/09 07:51:07;;;;;;;60.25;24.58;;;;;;;13.50;66.19;101766.28;6141263;23;20028;-94
2022/11/09 08:04:06;;;;;;;49.95;20.95;;;;;;;13.71;64.91;101730.84;6292794;22;20022;-93
2022/11/09 08:07:12;;;;;;;50.17;22.60;;;;;;;14.06;64.55;101777.78;6324136;22;20097;-95
2022/11/09 08:09:59;;;;;;;50.70;22.60;;;;;;;14.12;64.58;101779.03;6323150;22;20019;-94
2022/11/09 08:12:29;;;;;;;64.00;24.17;;;;;;;14.02;64.28;101757.44;6330694;22;20060;-93
2022/11/09 08:14:56;;;;;;;52.90;21.67;;;;;;;14.14;63.69;101753.50;6311617;22;20006;-94
2022/11/09 08:17:24;;;;;;;49.83;24.02;;;;;;;14.27;63.54;101749.53;6335602;22;20021;-93
2022/11/09 08:19:58;;;;;;;52.75;23.95;;;;;;;14.26;63.67;101728.91;6292669;22;20006;-94
2022/11/09 08:22:52;;;;;;;60.28;27.77;;;;;;;14.13;63.61;101711.22;6317563;22;20007;-95
2022/11/09 08:25:49;;;;;;;71.07;33.05;;;;;;;14.16;63.98;101734.41;6290073;22;20007;-95
2022/11/09 08:28:44;;;;;;;75.15;36.78;;;;;;;14.09;63.81;101731.50;6314985;22;20105;-95
2022/11/09 08:31:21;;;;;;;75.18;37.03;;;;;;;14.42;63.19;101753.38;6294830;22;20014;-94
2022/11/09 08:34:17;;;;;;;74.53;37.53;;;;;;;14.63;62.66;101752.13;6324635;22;20018;-93
2022/11/09 08:36:46;;;;;;;72.78;34.83;;;;;;;14.77;62.50;101743.41;6314740;22;20007;-94
2022/11/09 08:39:23;;;;;;;68.18;35.90;;;;;;;14.99;62.52;101775.34;6314099;22;20013;-95
2022/11/09 08:41:52;;;;;;;64.78;32.53;;;;;;;14.86;62.59;101737.03;6314945;22;20136;-93
2022/11/09 08:44:35;;;;;;;59.80;32.10;;;;;;;14.91;62.60;101721.16;6310643;22;20019;-94
2022/11/09 08:47:39;;;;;;;53.65;30.25;;;;;;;15.20;62.52;101757.81;6280782;22;20430;-95
2022/11/09 08:50:11;;;;;;;51.13;25.23;;;;;;;15.06;63.06;101761.16;6328837;22;20031;-95
2022/11/09 08:53:06;;;;;;;60.25;31.85;;;;;;;14.91;62.86;101732.00;6347305;22;19999;-96
2022/11/09 08:55:40;;;;;;;57.28;30.08;;;;;;;15.09;62.44;101731.03;6319574;22;20046;-94
2022/11/09 09:01:33;;;;;;;55.08;30.83;;;;;;;15.56;61.48;101776.53;6353070;22;20056;-94
2022/11/09 09:04:18;;;;;;;58.15;31.30;;;;;;;15.60;61.50;101761.63;6326670;22;20067;-95
2022/11/09 09:07:33;;;;;;;56.05;29.60;;;;;;;15.73;61.20;101772.88;6304796;22;20015;-93
2022/11/09 09:10:57;;;;;;;53.10;28.65;;;;;;;15.79;61.07;101764.03;6291251;22;20144;-96
2022/11/09 09:14:01;;;;;;;41.33;21.92;;;;;;;15.78;61.53;101767.78;6318115;22;20007;-96
2022/11/09 09:16:57;;;;;;;29.67;14.88;;;;;;;15.87;61.61;101767.78;6315449;22;20007;-95
2022/11/09 09:20:21;;;;;;;21.77;11.50;;;;;;;15.82;61.90;101769.13;6318387;22;20118;-93
2022/11/09 09:26:49;;;;;;;16.13;9.77;;;;;;;15.70;61.83;101773.19;6316360;22;20033;-96
2022/11/09 09:29:50;;;;;;;18.45;9.90;;;;;;;15.86;61.44;101758.78;6305207;22;20462;-94
2022/11/09 09:32:47;;;;;;;19.13;8.98;;;;;;;15.96;60.91;101758.63;6314512;22;20408;-94
2022/11/09 09:35:38;;;;;;;20.33;9.57;;;;;;;15.76;60.37;101728.31;6314071;22;20003;-95
2022/11/09 09:38:15;;;;;;;20.52;9.10;;;;;;;15.95;59.87;101737.97;6264322;22;20015;-93
2022/11/09 09:41:47;;;;;;;16.15;9.00;;;;;;;15.87;61.09;101751.50;6313559;22;20407;-95
2022/11/09 09:44:50;;;;;;;12.55;7.85;;;;;;;15.95;60.81;101749.66;6291185;22;20029;-95
2022/11/09 09:54:29;;;;;;;13.98;8.80;;;;;;;15.85;61.00;101750.81;6288088;22;20006;-95
2022/11/09 09:57:40;;;;;;;16.92;8.85;;;;;;;15.92;60.36;101754.53;6295357;22;19999;-94
2022/11/09 10:00:59;;;;;;;14.15;7.93;;;;;;;15.74;60.68;101714.06;6330404;22;20039;-94
2022/11/09 10:12:08;;;;;;;13.63;8.52;;;;;;;16.01;61.18;101734.53;6357820;22;20041;-95
2022/11/09 10:15:03;;;;;;;16.05;7.72;;;;;;;15.93;60.88;101729.97;6356067;22;20098;-95
2022/11/09 10:28:34;;;;;;;16.35;8.35;;;;;;;16.23;60.25;101728.44;6364483;22;20014;-94
2022/11/09 10:35:21;;;;;;;12.32;7.43;;;;;;;16.20;59.95;101719.78;6364423;22;19993;-95
2022/11/09 10:41:58;;;;;;;10.57;7.05;;;;;;;16.02;59.39;101687.44;6362245;22;20025;-96
2022/11/09 10:45:06;;;;;;;12.32;7.45;;;;;;;15.92;59.63;101689.47;6142868;23;20017;-96
2022/11/09 10:51:37;;;;;;;15.95;7.40;;;;;;;15.67;60.80;101722.00;6149570;23;20086;-95
2022/11/09 10:55:04;;;;;;;12.10;6.97;;;;;;;15.75;60.28;101719.28;6174879;23;20012;-95
2022/11/09 10:58:24;;;;;;;12.30;6.82;;;;;;;15.70;60.03;101701.81;6264280;23;20007;-95
2022/11/09 11:01:29;;;;;;;10.45;6.30;;;;;;;15.87;59.52;101692.69;6145646;23;20119;-95
2022/11/09 11:04:41;;;;;;;11.77;6.63;;;;;;;15.94;59.08;101703.69;6083409;23;20106;-96
2022/11/09 11:07:57;;;;;;;12.97;6.80;;;;;;;16.05;59.13;101706.06;6107066;23;20074;-95
2022/11/09 11:10:25;;;;;;;14.13;6.47;;;;;;;16.03;58.81;101713.53;6112382;23;20017;-94
2022/11/09 11:14:02;;;;;;;11.68;6.70;;;;;;;15.74;59.05;101660.69;6197146;23;20005;-96
2022/11/09 11:16:43;;;;;;;9.57;6.50;;;;;;;15.99;58.88;101695.91;6207045;23;20024;-95
2022/11/09 11:19:52;;;;;;;11.18;6.40;;;;;;;15.88;59.09;101698.97;6195395;23;20016;-95
2022/11/09 11:22:26;;;;;;;10.00;6.75;;;;;;;15.46;59.78;101651.19;6268350;22;20063;-95
2022/11/09 11:25:54;;;;;;;11.38;6.70;;;;;;;15.81;58.55;101640.00;6170723;22;20008;-95
2022/11/09 11:29:07;;;;;;;16.10;6.38;;;;;;;15.91;59.24;101695.91;6279926;22;20008;-95
2022/11/09 11:32:08;;;;;;;12.70;6.32;;;;;;;16.07;58.50;101673.34;6233868;22;20072;-93
2022/11/09 11:35:28;;;;;;;8.75;5.88;;;;;;;16.25;58.04;101695.72;6260354;22;20525;-96
2022/11/09 11:38:47;;;;;;;12.85;6.10;;;;;;;16.38;57.80;101689.72;6282008;22;20011;-92
2022/11/09 11:41:52;;;;;;;10.00;6.03;;;;;;;16.41;57.12;101686.66;6286638;22;20019;-94
2022/11/09 11:44:56;;;;;;;9.75;6.07;;;;;;;16.49;56.63;101688.50;6280610;22;20031;-93
2022/11/09 11:48:14;;;;;;;10.13;5.40;;;;;;;16.75;55.92;101697.22;6286331;22;20059;-93
2022/11/09 11:51:32;;;;;;;9.68;5.60;;;;;;;16.87;55.62;101695.00;6282763;22;20027;-94
2022/11/09 11:55:06;;;;;;;10.73;5.70;;;;;;;16.58;56.19;101704.59;6279792;22;20367;-93
2022/11/09 11:58:19;;;;;;;11.52;5.90;;;;;;;16.67;55.90;101708.13;6280770;22;20016;-95
2022/11/09 12:01:36;;;;;;;10.50;5.82;;;;;;;16.49;56.75;101707.50;6279341;22;20003;-93
2022/11/09 12:05:20;;;;;;;12.20;6.00;;;;;;;16.40;56.08;101655.13;6343863;22;20359;-95
2022/11/09 12:08:24;;;;;;;11.02;6.22;;;;;;;16.80;55.65;101691.28;6221006;23;20011;-92
2022/11/09 12:11:14;;;;;;;11.23;6.18;;;;;;;17.06;54.66;101701.84;6239406;22;20304;-92
2022/11/09 12:14:07;;;;;;;8.20;5.97;;;;;;;16.88;55.34;101708.41;6313617;22;20034;-94
2022/11/09 12:17:14;;;;;;;10.63;6.05;;;;;;;16.79;55.15;101705.91;6317133;22;20093;-94
2022/11/09 12:20:27;;;;;;;12.05;6.65;;;;;;;17.34;53.99;101712.22;6290002;22;20010;-94
2022/11/09 12:23:31;;;;;;;7.65;5.70;;;;;;;17.41;53.42;101702.31;6343303;22;20380;-92
2022/11/09 12:26:32;;;;;;;13.88;5.65;;;;;;;17.25;53.69;101687.78;6340534;22;20003;-94
2022/11/09 12:29:40;;;;;;;9.98;5.47;;;;;;;16.74;55.45;101695.53;6341968;22;20003;-93
2022/11/09 12:32:29;;;;;;;10.45;5.43;;;;;;;17.20;53.42;101697.53;6313509;22;19995;-94
2022/11/09 12:35:35;;;;;;;8.10;5.70;;;;;;;17.01;54.18;101691.53;6318191;22;20071;-94
2022/11/09 12:38:19;;;;;;;10.77;5.20;;;;;;;16.85;53.44;101669.88;6353289;22;20021;-95
2022/11/09 12:41:43;;;;;;;10.73;6.35;;;;;;;17.19;53.35;101671.41;6321773;22;20014;-94
2022/11/09 12:44:58;;;;;;;9.38;5.45;;;;;;;17.27;52.93;101695.78;6350924;22;20002;-95
2022/11/09 12:47:40;;;;;;;9.63;5.80;;;;;;;17.17;52.88;101673.44;6351855;22;20010;-95
2022/11/09 12:50:33;;;;;;;9.30;5.50;;;;;;;17.13;51.95;101672.94;6314681;22;20018;-94
2022/11/09 12:53:05;;;;;;;11.43;5.40;;;;;;;16.90;52.69;101682.94;6343350;22;20093;-89
2022/11/09 12:56:01;;;;;;;9.60;6.25;;;;;;;17.00;52.74;101700.72;6338839;22;20123;-91
2022/11/09 12:58:40;;;;;;;11.15;5.00;;;;;;;16.78;52.82;101690.59;6330597;22;20068;-92
2022/11/09 13:01:30;;;;;;;9.27;5.63;;;;;;;16.63;52.50;101653.31;6313992;22;20002;-92
2022/11/09 13:04:01;;;;;;;10.38;6.00;;;;;;;17.23;52.51;101694.44;6311191;22;20010;-93
2022/11/09 13:06:31;;;;;;;9.88;5.63;;;;;;;17.05;52.69;101703.72;6311899;22;20010;-93
2022/11/09 13:09:01;;;;;;;11.38;6.30;;;;;;;17.23;52.06;101702.59;6314316;22;20025;-90
2022/11/09 13:11:45;;;;;;;13.90;5.90;;;;;;;16.95;52.53;101697.69;6314631;22;20014;-93
2022/11/09 13:14:35;;;;;;;8.20;5.38;;;;;;;16.45;52.97;101658.16;6316659;22;20074;-94
2022/11/09 13:17:51;;;;;;;12.77;5.90;;;;;;;16.72;53.34;101669.59;6314063;22;20007;-95
2022/11/09 13:20:38;;;;;;;11.15;5.97;;;;;;;16.85;53.32;101699.75;6318461;22;20098;-89
2022/11/09 13:23:29;;;;;;;8.05;4.65;;;;;;;16.24;54.69;101700.25;6308647;22;20006;-89
2022/11/09 13:25:56;;;;;;;8.20;4.72;;;;;;;16.13;55.29;101697.94;6310191;22;20006;-89
2022/11/09 13:28:28;;;;;;;11.68;6.95;;;;;;;16.18;55.13;101711.81;6290975;22;20087;-86
2022/11/09 13:30:59;;;;;;;12.05;7.93;;;;;;;15.95;55.13;101660.16;6342810;22;20081;-92
2022/11/09 13:33:41;;;;;;;;;;;;;;;;;;;;;
2022/11/09 13:36:36;;;;;;;8.88;5.13;;;;;;;15.65;55.88;101672.50;6308810;22;20011;-96
2022/11/09 13:39:28;;;;;;;7.03;4.85;;;;;;;15.97;55.62;101695.25;6320923;22;20074;-89
2022/11/09 13:41:53;;;;;;;12.93;4.40;;;;;;;15.88;55.56;101705.25;6295603;22;20074;-87
2022/11/09 13:44:23;;;;;;;8.27;4.18;;;;;;;15.63;56.28;101707.91;6307734;22;20030;-87
2022/11/09 13:46:49;;;;;;;8.57;4.10;;;;;;;15.52;57.00;101704.69;6307121;22;20085;-90
2022/11/09 13:49:34;;;;;;;8.82;4.70;;;;;;;15.46;57.21;101705.38;6283629;22;20328;-90
2022/11/09 13:52:03;;;;;;;;;;;;;;;15.43;57.34;101700.25;6349528;22;20003;-90
2022/11/09 13:54:44;;;;;;;9.00;4.90;;;;;;;15.06;57.83;101675.34;6304593;22;19913;-90
2022/11/09 13:57:11;;;;;;;7.25;3.95;;;;;;;15.16;57.89;101686.00;6307517;22;19998;-85
2022/11/09 13:59:56;;;;;;;8.45;4.32;;;;;;;15.05;57.81;101668.19;6342793;22;20493;-89
2022/11/09 14:02:25;;;;;;;8.13;3.90;;;;;;;14.97;58.18;101687.16;6259857;22;20010;-89
2022/11/09 14:04:53;;;;;;;7.15;3.95;;;;;;;14.90;58.43;101662.59;6309792;22;20121;-90
2022/11/09 14:07:31;;;;;;;6.45;3.75;;;;;;;14.91;59.23;101696.78;6335910;22;20003;-90
2022/11/09 14:10:12;;;;;;;6.05;3.90;;;;;;;14.91;59.05;101696.78;6282631;22;20016;-89
2022/11/09 14:12:43;;;;;;;6.18;3.90;;;;;;;14.67;60.06;101699.38;6335401;22;20021;-87
2022/11/09 14:15:26;;;;;;;7.15;3.88;;;;;;;14.51;59.82;101668.50;6335290;22;20375;-89
2022/11/09 14:18:28;;;;;;;6.38;3.72;;;;;;;14.61;60.38;101697.31;6334834;22;20072;-90
2022/11/09 14:21:24;;;;;;;6.15;3.55;;;;;;;14.38;60.72;101689.75;6323476;22;19995;-90
2022/11/09 14:23:54;;;;;;;8.45;3.95;;;;;;;14.25;60.90;101692.03;6362846;22;20039;-91
2022/11/09 14:26:23;;;;;;;7.97;4.20;;;;;;;14.17;61.13;101675.78;6358788;22;20009;-90
2022/11/09 14:28:49;;;;;;;5.72;3.92;;;;;;;14.01;61.04;101660.28;6328811;22;20007;-90
2022/11/09 14:31:40;;;;;;;10.68;6.13;;;;;;;14.14;61.57;101683.19;6323522;22;20009;-89
2022/11/09 14:34:13;;;;;;;19.35;11.93;;;;;;;13.83;61.45;101647.66;6311451;22;20002;-90
2022/11/09 14:36:41;;;;;;;8.27;4.15;;;;;;;13.87;61.89;101662.56;6257288;22;20006;-89
2022/11/09 14:39:29;;;;;;;5.40;3.60;;;;;;;13.85;61.63;101663.72;6314016;22;20013;-90
2022/11/09 14:42:04;;;;;;;12.85;4.22;;;;;;;13.77;62.49;101685.31;6294618;22;20470;-89
2022/11/09 14:44:41;;;;;;;7.53;3.78;;;;;;;13.66;62.40;101662.91;6341746;22;20462;-91
2022/11/09 14:47:22;;;;;;;10.15;4.72;;;;;;;13.76;62.16;101683.59;6262428;22;20103;-91
2022/11/09 14:49:48;;;;;;;6.82;3.60;;;;;;;13.24;63.27;101641.06;6306142;22;20006;-89
2022/11/09 14:52:20;;;;;;;5.55;3.88;;;;;;;13.36;63.46;101660.63;6288719;22;20003;-93
2022/11/09 14:54:59;;;;;;;11.80;5.15;;;;;;;13.23;64.00;101663.69;6317291;22;20013;-94
2022/11/09 14:57:25;;;;;;;7.13;4.30;;;;;;;13.23;64.55;101702.34;6339016;22;20011;-94
2022/11/09 14:59:51;;;;;;;9.38;4.65;;;;;;;13.19;63.92;101676.63;6308707;22;20017;-92
2022/11/09 15:02:20;;;;;;;8.07;4.40;;;;;;;13.13;64.49;101671.00;6314123;22;20014;-93
2022/11/09 15:05:17;;;;;;;11.02;4.35;;;;;;;13.32;64.29;101697.03;6298460;22;20028;-92
2022/11/09 15:07:47;;;;;;;11.57;4.95;;;;;;;13.02;64.96;101674.78;6317534;22;20011;-87
2022/11/09 15:10:19;;;;;;;10.38;5.13;;;;;;;13.14;66.30;101703.25;6324657;22;20098;-88
2022/11/09 15:12:54;;;;;;;13.57;4.68;;;;;;;13.11;65.89;101703.56;6319514;22;20015;-89
2022/11/09 15:15:24;;;;;;;11.18;4.70;;;;;;;12.93;65.60;101676.53;6306667;22;20010;-89
2022/11/09 15:17:49;;;;;;;9.43;5.00;;;;;;;13.15;65.19;101717.59;6281484;22;20423;-89
2022/11/09 15:20:25;;;;;;;13.95;5.70;;;;;;;13.09;65.30;101716.38;6306221;22;20011;-90
2022/11/09 15:23:20;;;;;;;12.98;4.03;;;;;;;12.95;65.28;101706.94;6335508;22;20010;-89
2022/11/09 15:25:49;;;;;;;9.07;4.13;;;;;;;12.82;65.78;101701.88;6285694;22;20032;-89
2022/11/09 15:28:34;;;;;;;11.50;4.97;;;;;;;12.90;65.82;101720.03;6340667;22;20086;-88
2022/11/09 15:31:01;;;;;;;15.50;6.82;;;;;;;12.87;65.75;101721.16;6283617;22;20007;-92
2022/11/09 15:33:55;;;;;;;11.48;6.00;;;;;;;12.66;66.10;101705.22;6309420;22;20362;-91
2022/11/09 15:36:24;;;;;;;13.57;6.13;;;;;;;12.70;66.36;101721.97;6306181;22;20011;-89
2022/11/09 15:39:15;;;;;;;11.48;6.30;;;;;;;12.63;66.12;101710.06;6342220;22;20689;-90
2022/11/09 15:41:41;;;;;;;15.35;6.57;;;;;;;12.46;66.21;101690.97;6335750;22;20018;-89
2022/11/09 15:44:09;;;;;;;12.20;6.15;;;;;;;12.31;66.63;101676.25;6262842;22;20343;-90
2022/11/09 15:46:36;;;;;;;14.20;6.85;;;;;;;12.39;67.08;101702.50;6285267;22;20011;-90
2022/11/09 15:49:17;;;;;;;17.52;7.88;;;;;;;12.16;66.98;101664.25;6263706;22;20019;-89
2022/11/09 15:51:49;;;;;;;16.50;7.50;;;;;;;12.31;67.05;101694.28;6282278;22;20045;-89
2022/11/09 15:54:15;;;;;;;18.48;7.40;;;;;;;12.16;66.70;101678.59;6283152;22;20498;-91
2022/11/09 15:56:41;;;;;;;24.45;7.88;;;;;;;12.18;66.91;101675.75;6336903;22;20072;-90
2022/11/09 15:59:11;;;;;;;16.98;7.50;;;;;;;12.38;66.66;101735.84;6338106;22;20404;-91
2022/11/09 16:01:38;;;;;;;20.45;7.78;;;;;;;12.30;67.27;101733.88;6289389;22;20088;-87
2022/11/09 16:04:06;;;;;;;19.00;7.45;;;;;;;11.98;67.17;101680.34;6308826;22;20059;-87
2022/11/09 16:06:33;;;;;;;13.35;6.50;;;;;;;12.22;67.25;101718.44;6308943;22;20379;-89
2022/11/09 16:09:01;;;;;;;18.65;6.65;;;;;;;11.95;67.59;101689.56;6334700;22;20458;-90
2022/11/09 16:11:29;;;;;;;16.05;6.38;;;;;;;12.07;67.43;101710.97;6336088;22;20308;-88
2022/11/09 16:14:00;;;;;;;13.50;5.97;;;;;;;11.93;67.86;101691.53;6307329;22;20021;-87
2022/11/09 16:16:26;;;;;;;21.27;6.65;;;;;;;11.86;67.89;101697.63;6307792;22;20447;-91
2022/11/09 16:18:53;;;;;;;13.90;6.53;;;;;;;11.95;68.05;101723.75;6282479;22;20013;-89
2022/11/09 16:21:19;;;;;;;17.55;6.38;;;;;;;12.01;68.17;101737.50;6280906;22;20006;-88
2022/11/09 16:23:45;;;;;;;20.33;7.00;;;;;;;11.67;68.23;101687.72;6308709;22;20391;-92
2022/11/09 16:26:14;;;;;;;;;;;;;;;11.94;68.28;101744.47;6309952;22;20017;-87
2022/11/09 16:28:42;;;;;;;17.63;6.07;;;;;;;11.87;68.33;101743.34;6307422;22;19945;-88
2022/11/09 16:31:09;;;;;;;18.00;6.40;;;;;;;11.74;68.48;101726.56;6258977;22;20006;-88
2022/11/09 16:33:35;;;;;;;17.30;6.43;;;;;;;11.66;68.78;101713.81;6308125;22;20347;-92
2022/11/09 16:36:01;;;;;;;;;;;;;;;11.83;68.76;101741.88;6286129;22;20079;-86
2022/11/09 16:38:29;;;;;;;17.83;7.45;;;;;;;11.79;69.06;101745.84;6335287;22;19914;-91
2022/11/09 16:40:54;;;;;;;22.35;6.22;;;;;;;11.65;68.71;101722.03;6256497;22;20011;-90
2022/11/09 16:43:22;;;;;;;14.10;6.32;;;;;;;11.78;69.00;101755.78;6308451;22;20097;-89
2022/11/09 16:45:48;;;;;;;15.85;7.82;;;;;;;11.51;69.24;101720.63;6306927;22;20038;-90
2022/11/09 16:48:14;;;;;;;;;;;;;;;11.74;69.12;101748.13;6282139;22;20439;-90
2022/11/09 16:50:40;;;;;;;18.00;7.80;;;;;;;11.68;68.96;101751.38;6334272;22;19910;-88
2022/11/09 16:53:06;;;;;;;18.27;7.78;;;;;;;11.41;69.19;101717.91;6334555;22;20029;-88
2022/11/09 16:55:32;;;;;;;33.88;8.63;;;;;;;11.50;69.14;101724.31;6308118;22;20014;-89
2022/11/09 16:57:58;;;;;;;16.25;9.00;;;;;;;11.46;69.38;101725.56;6305176;22;20027;-92
2022/11/09 17:00:45;;;;;;;18.05;7.97;;;;;;;11.54;69.47;101726.59;6306118;22;20007;-90
2022/11/09 17:03:15;;;;;;;14.45;7.75;;;;;;;11.39;69.65;101706.44;6336758;22;20182;-95
2022/11/09 17:05:53;;;;;;;16.13;7.05;;;;;;;11.34;69.69;101703.31;6321269;22;20006;-95
2022/11/09 17:08:20;;;;;;;18.45;7.28;;;;;;;11.38;69.80;101702.06;6288757;22;20453;-90
2022/11/09 17:10:48;;;;;;;22.88;6.45;;;;;;;11.22;69.99;101689.13;6281696;22;20015;-88
2022/11/09 17:13:16;;;;;;;14.27;6.07;;;;;;;11.43;70.29;101728.56;6308370;22;20524;-92
2022/11/09 17:15:59;;;;;;;18.20;7.15;;;;;;;11.41;70.74;101734.06;6287091;22;20002;-93
2022/11/09 17:18:25;;;;;;;18.65;7.18;;;;;;;11.24;71.09;101707.81;6285792;22;20105;-92
2022/11/09 17:26:32;;;;;;;43.30;21.58;;;;;;;11.24;70.14;101705.13;6322752;22;20035;-95
2022/11/09 17:28:59;;;;;;;26.85;12.75;;;;;;;11.28;70.28;101720.03;6285189;22;20015;-94
2022/11/09 17:31:59;;;;;;;21.88;9.32;;;;;;;11.29;70.03;101721.75;6294164;22;20034;-96
2022/11/09 17:35:12;;;;;;;19.05;8.57;;;;;;;11.41;70.71;101761.00;6285960;22;20050;-96
2022/11/09 17:37:56;;;;;;;22.20;9.45;;;;;;;11.43;70.45;101764.41;6311011;22;20030;-95
2022/11/09 17:40:24;;;;;;;21.38;9.68;;;;;;;11.15;70.51;101709.53;6270522;22;20026;-95
2022/11/09 17:42:53;;;;;;;24.00;10.20;;;;;;;11.14;70.55;101719.47;6244672;22;20019;-95
2022/11/09 17:45:24;;;;;;;19.83;9.82;;;;;;;11.16;70.29;101722.84;6244196;22;20014;-96
2022/11/09 17:50:32;;;;;;;19.70;9.82;;;;;;;11.23;71.28;101749.22;6270370;22;20091;-90
2022/11/09 17:58:33;;;;;;;19.15;8.23;;;;;;;10.94;71.56;101720.38;6325071;22;20052;-94
2022/11/09 18:04:50;;;;;;;20.15;8.00;;;;;;;11.10;71.69;101754.84;6303046;22;20160;-93
2022/11/09 18:07:29;;;;;;;23.13;7.78;;;;;;;10.76;71.78;101704.88;6314417;22;20039;-94
2022/11/09 18:10:35;;;;;;;14.90;6.95;;;;;;;11.06;71.90;101754.25;6319276;22;20033;-91
2022/11/09 18:13:03;;;;;;;9.60;5.07;;;;;;;11.05;72.54;101751.69;6314591;22;20079;-91
2022/11/09 18:15:52;;;;;;;9.80;5.40;;;;;;;10.94;72.32;101739.22;6271840;22;20023;-92
2022/11/09 18:27:46;;;;;;;;;;;;;;;11.01;72.67;101763.75;6300652;22;20018;-90
2022/11/09 18:30:40;;;;;;;13.52;6.15;;;;;;;10.69;72.62;101709.13;6274902;22;19922;-89
2022/11/09 18:33:15;;;;;;;11.85;6.68;;;;;;;10.62;72.48;101710.66;6258338;22;20106;-91
2022/11/09 18:42:13;;;;;;;20.23;9.47;;;;;;;10.97;72.70;101761.31;6318534;22;20379;31
2022/11/09 18:44:51;;;;;;;23.50;12.38;;;;;;;10.56;72.45;101701.28;6130080;23;20025;-93
2022/11/09 18:47:39;;;;;;;21.88;9.73;;;;;;;10.98;72.68;101762.19;6109229;23;20077;-95
2022/11/09 18:50:53;;;;;;;17.13;8.25;;;;;;;10.92;72.84;101760.88;6112970;23;20002;-94
2022/11/09 18:53:46;;;;;;;14.80;7.88;;;;;;;10.74;72.75;101738.28;6149018;23;20025;-95
2022/11/09 18:56:33;;;;;;;22.33;9.98;;;;;;;10.75;72.63;101737.31;6130088;23;20024;-91
2022/11/09 18:59:39;;;;;;;16.67;7.88;;;;;;;10.78;72.95;101745.13;6130997;23;20014;-96
2022/11/09 19:02:58;;;;;;;17.90;7.85;;;;;;;10.66;72.78;101722.84;6185054;22;20010;-95
2022/11/09 19:05:28;;;;;;;20.80;9.50;;;;;;;10.60;73.34;101731.44;6319842;22;20094;-90
2022/11/09 19:07:57;;;;;;;21.63;9.93;;;;;;;10.38;73.06;101697.53;6334781;22;20007;-93
2022/11/09 19:35:11;;;;;;;25.70;12.98;;;;;;;10.14;74.48;101738.13;6268752;22;20033;-94